map of BNX home
BNX - Airport
Location
City:  Banja Luka, Bosnia and Herzegovina
Name:Banja Luka International Airport
Old (Alt.):Mahovljani
ICAO:LQBK
IATA:BNX

Details
Type:Airport (Aerodrome, Airfield)
Use:Public/Civil, Military, International (customs port of entry)
Latitude:4456'29"N (44.941444)
Longitude:1717'51"E (17.297501)
Datum:WGS 1984
Elevation:400 ft (122 m)
Variation:4.42E (WMM2015v2 magnetic declination)
0.14 annual change
Runways:1
Longest:8213 × 148 ft (2503 × 45 m), paved

Time
Time Zone:UTC+1 (DST+2)
Local Time:

Weather
METAR:LQBK 041400Z 34004KT 9999 SCT030 06/01 Q1028 NOSIG
TAF:LQBK 031700Z 0318/0418 03006KT 9999 BKN040 TX07/0413Z TN02/0406Z PROB40
TEMPO 0318/0410 4000 RA BKN015 OVC035

Related Locations
Nearby:
Farthest:CHT: 11756 mi / 18919 km
Waitangi [Tuuta], CIT, NZ

Find:

   beyond  
but within

Other Information
Maps:
NOTAMs:
Links:
Sources:

  
  • flag of Bosnia and Herzegovina
  

Sectional Chart

Flight Planning
at skyvector.com

Satellite Image

Google Maps Satellite view

 

Copyright © 2004-2019 Karl L. Swartz. All rights reserved.
The Great Circle Mapper name and logo are trademarks of the Great Circle Mapper.
All other trademarks mentioned herein belong to their respective owners.
Please see credits for attibutions and further copyright information.

  Follow gcmap on Facebook Follow gcmap on Twitter GCmap on LinkedIn

hCard Microformat

Geo Microformat